Aviation Digital Data Service (ADDS)

Output produced by TAFs form (0925 UTC 19 August 2017)
found at http://aviationweather.gov/adds/tafs/
 
KRIL 190530Z 1906/2006 15004KT P6SM SKC 
     FM191800 29004KT P6SM SCT120 
     FM200200 VRB03KT P6SM SCT200